Time;durP1;ratioP1;P1;durP2;ratioP2;P2;SDS_P1;SDS_P2;PMS_P1;PMS_P2;Temp;Humidity;BMP_temperature;BMP_pressure;BME280_temperature;BME280_humidity;BME280_pressure;Samples;Min_cycle;Max_cycle;Signal;HPM_P1;HPM_P2
2022/12/26 00:01:59;;;;;;;2.83;2.63;;;10.60;99.90;;;;;;5056018;28;20426;-79
2022/12/26 00:04:24;;;;;;;4.80;2.50;;;10.60;99.90;;;;;;5074157;28;20895;-78
2022/12/26 00:06:50;;;;;;;5.30;2.50;;;10.70;99.90;;;;;;5055801;28;20419;-77
2022/12/26 00:09:16;;;;;;;3.73;3.00;;;10.50;99.90;;;;;;5039037;28;20423;-78
2022/12/26 00:11:42;;;;;;;3.03;2.70;;;10.60;99.90;;;;;;5022019;28;20649;-79
2022/12/26 00:14:13;;;;;;;4.70;2.70;;;10.60;99.90;;;;;;5054875;28;20450;-81
2022/12/26 00:16:40;;;;;;;2.97;2.20;;;10.80;99.90;;;;;;5055061;28;20431;-77
2022/12/26 00:19:06;;;;;;;2.80;2.13;;;10.90;99.90;;;;;;5054890;28;20428;-79
2022/12/26 00:21:32;;;;;;;3.93;2.63;;;11.00;99.90;;;;;;5038358;28;20841;-80
2022/12/26 00:23:58;;;;;;;3.43;2.83;;;11.10;99.90;;;;;;5038669;28;20211;-81
2022/12/26 00:26:27;;;;;;;2.60;1.97;;;11.10;99.90;;;;;;5020738;28;20453;-80
2022/12/26 00:28:54;;;;;;;4.10;2.60;;;11.10;99.90;;;;;;5054573;28;20429;-78
2022/12/26 00:31:23;;;;;;;2.30;2.10;;;11.10;99.90;;;;;;5037608;28;20423;-80
2022/12/26 00:33:49;;;;;;;2.77;2.20;;;11.00;99.90;;;;;;5054545;28;21119;-81
2022/12/26 00:36:23;;;;;;;2.60;2.40;;;11.10;99.90;;;;;;5056145;28;20433;-81
2022/12/26 00:38:50;;;;;;;2.40;2.20;;;11.20;99.90;;;;;;5056260;28;20886;-81
2022/12/26 00:41:18;;;;;;;2.57;2.30;;;11.00;99.90;;;;;;5073641;28;20467;-79
2022/12/26 00:43:44;;;;;;;2.90;2.33;;;11.10;99.90;;;;;;5055476;28;20446;-80
2022/12/26 00:46:10;;;;;;;3.13;2.63;;;11.10;99.90;;;;;;5022033;28;20522;-80
2022/12/26 00:48:36;;;;;;;3.30;2.97;;;11.10;99.90;;;;;;5054947;28;20208;-79
2022/12/26 00:51:02;;;;;;;3.40;3.10;;;11.10;99.90;;;;;;5072935;28;20885;-81
2022/12/26 00:53:27;;;;;;;3.33;2.97;;;11.00;99.90;;;;;;5072887;28;20821;-82
2022/12/26 00:55:53;;;;;;;4.10;3.43;;;11.10;99.90;;;;;;5055662;28;20466;-79
2022/12/26 00:58:19;;;;;;;3.13;2.80;;;11.10;99.90;;;;;;5056332;28;20220;-79
2022/12/26 01:00:45;;;;;;;4.87;3.80;;;11.00;99.90;;;;;;5074347;28;20199;-79
2022/12/26 01:03:12;;;;;;;3.03;2.73;;;10.90;99.90;;;;;;5073882;28;20436;-80
2022/12/26 01:05:42;;;;;;;2.70;2.50;;;10.90;99.90;;;;;;5056163;28;20894;-79
2022/12/26 01:08:08;;;;;;;4.50;2.80;;;10.90;99.90;;;;;;5055094;28;20424;-80
2022/12/26 01:10:34;;;;;;;5.10;2.70;;;11.00;99.90;;;;;;5037282;28;20435;-80
2022/12/26 01:13:00;;;;;;;6.70;3.07;;;11.10;99.90;;;;;;5020318;28;20810;-79
2022/12/26 01:15:25;;;;;;;4.87;2.80;;;11.20;99.90;;;;;;5037091;28;20510;-79
2022/12/26 01:17:51;;;;;;;4.50;3.10;;;11.20;99.90;;;;;;5053570;28;20182;-81
2022/12/26 01:20:17;;;;;;;4.67;1.93;;;11.30;99.90;;;;;;5036644;28;20553;-80
2022/12/26 01:22:42;;;;;;;2.40;2.17;;;11.30;99.90;;;;;;5037123;28;20712;-79
2022/12/26 01:25:09;;;;;;;3.00;1.90;;;11.20;99.90;;;;;;5053409;28;20551;-78
2022/12/26 01:27:35;;;;;;;1.97;1.87;;;11.40;99.90;;;;;;5054267;28;20204;-79
2022/12/26 01:30:00;;;;;;;1.70;1.60;;;11.50;99.90;;;;;;5054433;28;20924;-79
2022/12/26 01:32:26;;;;;;;2.43;2.23;;;11.60;99.90;;;;;;5039524;28;20190;-78
2022/12/26 01:34:54;;;;;;;2.13;1.93;;;11.40;99.90;;;;;;5074505;28;20844;-78
2022/12/26 01:37:21;;;;;;;2.43;2.23;;;11.60;99.90;;;;;;5073911;28;20180;-79
2022/12/26 01:39:48;;;;;;;2.20;1.90;;;11.60;99.90;;;;;;5040819;28;20487;-78
2022/12/26 01:42:17;;;;;;;2.33;2.13;;;11.60;99.90;;;;;;5055206;28;20505;-80
2022/12/26 01:45:31;;;;;;;2.13;1.93;;;11.60;99.90;;;;;;5054394;28;20451;-77
2022/12/26 01:48:04;;;;;;;2.50;1.87;;;11.60;99.90;;;;;;5071658;28;20439;-78
2022/12/26 01:50:37;;;;;;;2.87;1.67;;;11.70;99.90;;;;;;5053259;28;20434;-77
2022/12/26 01:53:20;;;;;;;2.37;2.10;;;11.60;99.90;;;;;;5052400;28;20436;-77
2022/12/26 01:55:52;;;;;;;1.60;1.50;;;11.60;99.90;;;;;;5070846;28;20425;-77
2022/12/26 01:58:23;;;;;;;2.07;1.87;;;11.60;99.90;;;;;;5071105;28;20425;-78
2022/12/26 02:00:50;;;;;;;2.50;2.03;;;11.60;99.90;;;;;;5052148;28;20484;-79
2022/12/26 02:06:01;;;;;;;2.03;1.53;;;11.80;99.90;;;;;;5071673;28;20848;-78
2022/12/26 02:08:33;;;;;;;3.20;1.93;;;11.60;99.90;;;;;;5056215;28;20426;-80
2022/12/26 02:11:06;;;;;;;3.60;1.80;;;11.70;99.90;;;;;;5037538;28;20490;-80
2022/12/26 02:13:35;;;;;;;2.47;1.80;;;11.50;99.90;;;;;;5072504;28;20439;-78
2022/12/26 02:16:03;;;;;;;2.20;1.70;;;11.40;99.90;;;;;;5072745;28;20859;-78
2022/12/26 02:18:28;;;;;;;2.20;2.00;;;11.50;99.90;;;;;;5074910;28;20621;-79
2022/12/26 02:20:57;;;;;;;2.50;2.20;;;11.30;99.90;;;;;;5068287;28;20501;-79
2022/12/26 02:23:46;;;;;;;2.27;2.07;;;11.20;99.90;;;;;;5078561;28;20207;-77
2022/12/26 02:26:37;;;;;;;2.10;1.90;;;11.20;99.90;;;;;;5055333;28;20431;-78
2022/12/26 02:29:05;;;;;;;2.37;1.80;;;11.30;99.90;;;;;;5050947;28;21078;-78
2022/12/26 02:31:33;;;;;;;3.00;2.10;;;11.30;99.90;;;;;;5069027;28;20505;-77
2022/12/26 02:34:19;;;;;;;2.27;1.97;;;11.30;99.90;;;;;;5051203;28;20811;-81
2022/12/26 02:36:44;;;;;;;2.20;2.00;;;11.50;99.90;;;;;;5068995;28;20428;-79
2022/12/26 02:39:27;;;;;;;5.30;2.43;;;11.50;99.90;;;;;;5070649;28;20480;-78
2022/12/26 02:42:29;;;;;;;1.43;1.33;;;11.60;99.90;;;;;;5070041;28;20198;-78
2022/12/26 02:48:27;;;;;;;2.30;2.10;;;11.70;99.90;;;;;;5069938;28;20402;-80
2022/12/26 03:14:39;;;;;;;2.40;1.70;;;11.80;99.90;;;;;;5070670;28;20914;-81
2022/12/26 03:17:20;;;;;;;1.90;1.80;;;11.80;99.90;;;;;;5069574;28;20424;-81
2022/12/26 03:20:14;;;;;;;2.33;2.03;;;11.90;99.90;;;;;;5069142;28;20446;-80
2022/12/26 03:23:00;;;;;;;2.53;2.17;;;11.90;99.90;;;;;;5039395;28;20434;-81
2022/12/26 03:28:34;;;;;;;1.50;1.40;;;11.80;99.90;;;;;;5069392;28;20409;-80
2022/12/26 03:31:05;;;;;;;2.20;1.53;;;11.90;99.90;;;;;;5034458;28;20939;-79
2022/12/26 03:36:34;;;;;;;3.27;2.03;;;11.90;99.90;;;;;;5069282;28;20803;-78
2022/12/26 03:39:07;;;;;;;4.83;2.03;;;11.90;99.90;;;;;;5050384;28;20455;-79
2022/12/26 04:19:25;;;;;;;2.00;1.80;;;11.90;99.90;;;;;;5072233;28;20415;-78
2022/12/26 04:44:34;;;;;;;4.80;1.50;;;11.70;99.90;;;;;;5057929;28;20439;-80
2022/12/26 04:46:59;;;;;;;3.60;1.53;;;11.60;99.90;;;;;;5038697;28;20425;-80
2022/12/26 04:52:14;;;;;;;3.77;2.10;;;11.40;99.90;;;;;;5073199;28;20180;-81
2022/12/26 04:54:41;;;;;;;1.97;1.77;;;11.40;99.90;;;;;;5053649;28;20982;-82
2022/12/26 04:57:07;;;;;;;2.83;1.90;;;11.30;99.90;;;;;;5038436;28;20488;-82
2022/12/26 04:59:33;;;;;;;2.07;1.87;;;11.20;99.90;;;;;;5058830;28;21196;-81
2022/12/26 05:10:28;;;;;;;3.40;2.60;;;11.10;99.90;;;;;;5052328;28;20429;-84
2022/12/26 05:12:54;;;;;;;3.33;2.03;;;11.00;99.90;;;;;;5042753;28;20431;-82
2022/12/26 05:15:21;;;;;;;4.40;2.23;;;11.10;99.90;;;;;;5059635;28;20448;-82
2022/12/26 05:28:58;;;;;;;3.00;2.00;;;11.10;99.90;;;;;;5065832;28;20435;-82
2022/12/26 05:31:24;;;;;;;2.67;1.90;;;11.10;99.90;;;;;;5060820;28;20496;-82
2022/12/26 05:34:09;;;;;;;2.83;2.30;;;11.20;99.90;;;;;;5061783;28;20476;-82
2022/12/26 05:36:50;;;;;;;1.97;1.80;;;11.10;99.90;;;;;;5065972;28;20406;-81
2022/12/26 05:39:16;;;;;;;3.73;2.60;;;11.30;99.90;;;;;;5047066;28;20427;-81
2022/12/26 05:41:42;;;;;;;1.80;1.70;;;11.20;99.90;;;;;;5055761;28;20490;-85
2022/12/26 05:44:09;;;;;;;2.63;2.43;;;11.10;99.90;;;;;;5056191;28;20532;-77
2022/12/26 05:46:35;;;;;;;1.80;1.70;;;11.00;99.90;;;;;;5054784;28;20428;-79
2022/12/26 05:49:01;;;;;;;4.03;2.33;;;10.90;99.90;;;;;;5073573;28;20859;-79
2022/12/26 05:51:27;;;;;;;3.13;1.87;;;11.00;99.90;;;;;;5055497;28;20992;-78
2022/12/26 05:53:53;;;;;;;2.10;2.00;;;11.00;99.90;;;;;;5037287;28;20531;-78
2022/12/26 05:56:19;;;;;;;2.30;2.10;;;11.00;99.90;;;;;;5052758;28;20198;-78
2022/12/26 05:58:45;;;;;;;7.07;2.97;;;10.90;99.90;;;;;;5070787;28;20180;-79
2022/12/26 06:01:15;;;;;;;3.40;2.47;;;10.90;99.90;;;;;;5071213;28;20945;-78
2022/12/26 06:03:42;;;;;;;2.40;2.20;;;10.80;99.90;;;;;;5071027;28;20479;-80
2022/12/26 06:06:09;;;;;;;2.40;2.20;;;10.90;99.90;;;;;;5070540;28;20534;-79
2022/12/26 06:08:35;;;;;;;3.10;1.77;;;10.70;99.90;;;;;;5052530;28;20976;-79
2022/12/26 06:11:06;;;;;;;4.37;2.20;;;10.80;99.90;;;;;;5070157;28;20422;-79
2022/12/26 06:13:32;;;;;;;5.47;2.40;;;10.80;99.90;;;;;;5069978;28;20447;-76
2022/12/26 06:15:58;;;;;;;2.30;2.10;;;10.90;99.90;;;;;;5070433;28;20427;-77
2022/12/26 06:18:24;;;;;;;2.77;1.87;;;10.90;99.90;;;;;;5052014;28;20442;-77
2022/12/26 06:20:49;;;;;;;2.03;1.90;;;10.90;99.90;;;;;;5051924;28;20261;-76
2022/12/26 06:23:15;;;;;;;3.17;2.10;;;11.00;99.90;;;;;;5051763;28;20582;-77
2022/12/26 06:25:41;;;;;;;2.13;1.93;;;11.10;99.90;;;;;;5035121;28;20284;-75
2022/12/26 06:28:06;;;;;;;2.87;2.40;;;11.00;99.90;;;;;;5069858;28;20214;-78
2022/12/26 06:30:32;;;;;;;3.00;1.90;;;10.90;99.90;;;;;;5052129;28;21013;-77
2022/12/26 06:32:57;;;;;;;2.43;2.23;;;10.90;99.90;;;;;;5052385;28;20214;-79
2022/12/26 06:35:23;;;;;;;2.80;1.77;;;10.90;99.90;;;;;;5071219;28;20183;-76
2022/12/26 06:37:48;;;;;;;5.00;2.70;;;10.80;99.90;;;;;;5070434;28;20557;-79
2022/12/26 06:40:14;;;;;;;2.30;2.10;;;10.70;99.90;;;;;;5052038;28;20253;-78
2022/12/26 06:42:40;;;;;;;2.00;1.90;;;10.70;99.90;;;;;;5052017;28;20965;-78
2022/12/26 06:45:06;;;;;;;5.37;2.80;;;10.60;99.90;;;;;;5035473;28;20211;-77
2022/12/26 06:47:31;;;;;;;2.57;2.20;;;10.50;99.90;;;;;;5052239;28;20649;-79
2022/12/26 06:49:57;;;;;;;2.40;2.20;;;10.50;99.90;;;;;;5052556;28;20430;-78
2022/12/26 06:52:22;;;;;;;3.17;2.50;;;10.40;99.90;;;;;;5036448;28;20192;-79
2022/12/26 06:54:48;;;;;;;3.90;3.10;;;10.20;99.90;;;;;;5052781;28;20211;-79
2022/12/26 06:57:14;;;;;;;3.60;3.00;;;10.20;99.90;;;;;;5070687;28;20236;-79
2022/12/26 06:59:39;;;;;;;3.33;2.83;;;10.10;99.90;;;;;;5036272;28;20197;-79
2022/12/26 07:02:05;;;;;;;2.67;2.47;;;10.00;99.90;;;;;;5036221;28;20640;-78
2022/12/26 07:04:31;;;;;;;3.20;2.90;;;10.10;99.90;;;;;;5035978;28;20209;-79
2022/12/26 07:06:56;;;;;;;9.20;4.33;;;10.20;99.90;;;;;;5052691;28;20179;-78
2022/12/26 07:09:22;;;;;;;3.43;2.90;;;10.10;99.90;;;;;;5053121;28;20197;-78
2022/12/26 07:11:49;;;;;;;4.47;3.00;;;10.20;99.90;;;;;;5071499;28;20271;-79
2022/12/26 07:14:16;;;;;;;2.60;2.40;;;10.10;99.90;;;;;;5051932;28;20205;-76
2022/12/26 07:16:43;;;;;;;3.27;2.57;;;10.10;99.90;;;;;;5070202;28;20449;-77
2022/12/26 07:19:11;;;;;;;3.10;2.80;;;10.10;99.90;;;;;;5070935;28;20429;-77
2022/12/26 07:21:37;;;;;;;3.67;2.90;;;10.10;99.90;;;;;;5052296;28;20627;-78
2022/12/26 07:24:03;;;;;;;3.33;2.67;;;10.00;99.90;;;;;;5053085;28;20544;-79
2022/12/26 07:26:28;;;;;;;4.40;3.03;;;10.00;99.90;;;;;;5035593;28;20445;-77
2022/12/26 07:28:55;;;;;;;3.00;2.70;;;10.00;99.90;;;;;;5019116;28;20457;-77
2022/12/26 07:31:22;;;;;;;2.53;2.33;;;10.00;99.90;;;;;;5052977;28;20196;-78
2022/12/26 07:33:49;;;;;;;4.10;3.70;;;10.00;99.90;;;;;;5070349;28;20448;-77
2022/12/26 07:36:15;;;;;;;7.63;2.97;;;10.00;99.90;;;;;;5072618;28;20508;-77
2022/12/26 07:38:40;;;;;;;3.60;3.00;;;9.90;99.90;;;;;;5074143;28;20429;-78
2022/12/26 07:43:51;;;;;;;4.23;3.43;;;9.90;99.90;;;;;;5073923;28;20217;-79
2022/12/26 07:46:16;;;;;;;4.63;3.80;;;10.10;99.90;;;;;;5056780;28;20467;-78
2022/12/26 07:48:42;;;;;;;4.70;2.87;;;9.90;99.90;;;;;;5039333;28;20432;-78
2022/12/26 07:51:08;;;;;;;6.60;4.00;;;9.90;99.90;;;;;;5073562;28;20293;-77
2022/12/26 07:53:33;;;;;;;4.57;3.20;;;9.90;99.90;;;;;;5073623;28;20249;-79
2022/12/26 07:55:59;;;;;;;3.63;3.33;;;9.70;99.90;;;;;;5073635;28;20421;-80
2022/12/26 07:58:25;;;;;;;4.00;3.60;;;9.70;99.90;;;;;;5073510;28;20189;-78
2022/12/26 08:00:51;;;;;;;3.80;3.40;;;9.70;99.90;;;;;;5055408;28;20979;-80
2022/12/26 08:03:16;;;;;;;5.20;3.53;;;9.70;99.90;;;;;;5055111;28;20536;-78
2022/12/26 08:05:47;;;;;;;4.30;3.70;;;9.70;99.90;;;;;;5038015;28;20215;-77
2022/12/26 08:08:12;;;;;;;4.53;3.10;;;9.80;99.90;;;;;;5054731;28;20181;-77
2022/12/26 08:10:38;;;;;;;3.77;3.47;;;9.90;99.90;;;;;;5054897;28;20433;-78
2022/12/26 08:13:03;;;;;;;3.93;3.23;;;10.20;99.90;;;;;;5037752;28;20245;-78
2022/12/26 08:15:29;;;;;;;3.47;3.17;;;10.40;99.90;;;;;;5038200;28;20205;-77
2022/12/26 08:17:54;;;;;;;5.93;3.00;;;10.30;99.90;;;;;;5054195;28;20248;-78
2022/12/26 08:20:20;;;;;;;4.53;3.60;;;10.20;99.90;;;;;;5054150;28;20759;-79
2022/12/26 08:22:46;;;;;;;5.47;3.47;;;10.20;99.90;;;;;;5071620;28;20183;-79
2022/12/26 08:25:11;;;;;;;4.73;3.47;;;10.30;99.90;;;;;;5037025;28;20204;-78
2022/12/26 08:27:37;;;;;;;3.93;3.50;;;10.20;99.90;;;;;;5053232;28;20260;-78
2022/12/26 08:30:04;;;;;;;3.47;3.00;;;10.10;99.90;;;;;;5071678;28;20675;-78
2022/12/26 08:32:29;;;;;;;4.00;3.23;;;10.20;99.90;;;;;;5052769;28;20227;-78
2022/12/26 08:34:55;;;;;;;4.30;3.40;;;10.30;99.90;;;;;;5053252;28;20486;-78
2022/12/26 08:37:22;;;;;;;3.10;2.80;;;10.40;99.90;;;;;;5052559;28;20198;-78
2022/12/26 08:39:49;;;;;;;3.60;2.93;;;10.40;99.90;;;;;;5036725;28;20196;-78
2022/12/26 08:42:14;;;;;;;7.13;3.00;;;10.50;99.90;;;;;;5036183;28;20801;-79
2022/12/26 08:44:40;;;;;;;5.20;3.73;;;10.50;99.90;;;;;;5052988;28;20456;-78
2022/12/26 08:47:05;;;;;;;3.17;2.87;;;10.50;99.90;;;;;;5052053;28;20188;-79
2022/12/26 08:49:31;;;;;;;5.60;3.97;;;10.40;99.90;;;;;;5070557;28;20190;-79
2022/12/26 08:51:56;;;;;;;4.20;3.00;;;10.40;99.90;;;;;;5035544;28;20215;-78
2022/12/26 08:54:22;;;;;;;4.53;3.77;;;10.30;99.90;;;;;;5035646;28;20203;-78
2022/12/26 08:56:48;;;;;;;3.70;3.40;;;10.20;99.90;;;;;;5052270;28;20249;-79
2022/12/26 08:59:13;;;;;;;3.93;2.93;;;10.20;99.90;;;;;;5071973;28;20244;-78
2022/12/26 09:01:39;;;;;;;6.40;3.60;;;10.10;99.90;;;;;;5070926;28;20219;-78
2022/12/26 09:04:08;;;;;;;3.40;3.10;;;10.10;99.90;;;;;;5052710;28;20198;-78
2022/12/26 09:06:36;;;;;;;3.50;3.07;;;10.10;99.90;;;;;;5052879;28;20426;-79
2022/12/26 09:09:02;;;;;;;3.80;3.17;;;10.00;99.90;;;;;;5052561;28;20414;-78
2022/12/26 09:11:28;;;;;;;4.63;3.53;;;10.10;99.90;;;;;;5035416;28;20494;-79
2022/12/26 09:13:56;;;;;;;6.07;3.83;;;10.10;99.90;;;;;;5070247;28;20859;-78
2022/12/26 09:16:25;;;;;;;5.73;3.70;;;10.10;99.90;;;;;;5070290;28;21065;-78
2022/12/26 09:18:57;;;;;;;7.00;4.00;;;10.10;99.90;;;;;;5052374;28;20438;-78
2022/12/26 09:21:23;;;;;;;9.13;3.87;;;10.10;99.90;;;;;;5052337;28;20480;-78
2022/12/26 09:23:48;;;;;;;3.23;2.83;;;10.20;99.90;;;;;;5053293;28;20454;-77
2022/12/26 09:26:17;;;;;;;7.40;3.90;;;10.30;99.90;;;;;;5036796;28;20962;-80
2022/12/26 09:28:45;;;;;;;7.23;3.00;;;10.30;99.90;;;;;;5069918;28;20765;-79
2022/12/26 09:31:16;;;;;;;11.67;4.43;;;10.20;99.90;;;;;;5069722;28;20930;-79
2022/12/26 09:33:42;;;;;;;3.97;3.57;;;10.20;99.90;;;;;;5051243;28;20450;-78
2022/12/26 09:36:11;;;;;;;4.30;3.70;;;10.20;99.90;;;;;;5051835;28;20429;-77
2022/12/26 09:38:37;;;;;;;6.10;3.37;;;10.20;99.90;;;;;;5069857;28;20941;-77
2022/12/26 09:41:26;;;;;;;7.60;4.50;;;10.40;99.90;;;;;;5069562;28;20555;-77
2022/12/26 09:44:08;;;;;;;5.43;4.93;;;10.30;99.90;;;;;;5028162;28;20219;-78
2022/12/26 09:46:42;;;;;;;5.93;3.17;;;10.30;99.90;;;;;;5069285;28;21067;-77
2022/12/26 09:49:15;;;;;;;4.27;2.97;;;10.40;99.90;;;;;;5051056;28;20504;-78
2022/12/26 09:51:46;;;;;;;3.97;2.70;;;10.50;99.90;;;;;;5051563;28;20425;-77
2022/12/26 09:54:25;;;;;;;2.57;2.37;;;10.50;99.90;;;;;;5069173;28;20442;-77
2022/12/26 09:56:51;;;;;;;3.73;2.87;;;10.60;99.90;;;;;;5050868;28;20448;-78
2022/12/26 09:59:20;;;;;;;3.73;2.30;;;10.60;99.90;;;;;;5069134;28;20430;-78
2022/12/26 10:01:47;;;;;;;2.17;2.03;;;10.70;99.90;;;;;;5069121;28;20565;-77
2022/12/26 10:04:25;;;;;;;2.90;2.37;;;10.70;99.90;;;;;;5069018;28;20452;-77
2022/12/26 10:07:12;;;;;;;2.60;2.40;;;10.60;99.90;;;;;;5050684;28;20471;-78
2022/12/26 10:09:41;;;;;;;4.13;2.80;;;10.60;99.90;;;;;;5050826;28;20456;-77
2022/12/26 10:12:19;;;;;;;2.90;2.57;;;10.70;99.90;;;;;;5051010;28;20527;-77
2022/12/26 10:14:58;;;;;;;5.23;4.73;;;10.60;99.90;;;;;;5069389;28;21032;-78
2022/12/26 10:17:41;;;;;;;4.00;2.47;;;10.60;99.90;;;;;;5051108;28;20443;-78
2022/12/26 10:20:14;;;;;;;3.80;2.60;;;10.60;99.90;;;;;;5069013;28;20493;-78
2022/12/26 10:23:14;;;;;;;3.00;2.70;;;10.70;99.90;;;;;;5051150;28;20436;-77
2022/12/26 10:25:54;;;;;;;3.00;2.60;;;10.70;99.90;;;;;;5069291;28;20427;-78
2022/12/26 10:28:31;;;;;;;3.67;3.10;;;10.70;99.90;;;;;;5051224;28;20422;-78
2022/12/26 10:31:01;;;;;;;5.87;3.47;;;10.70;99.90;;;;;;5051234;28;20419;-77
2022/12/26 10:33:53;;;;;;;3.03;2.40;;;10.70;99.90;;;;;;5068905;28;20933;-77
2022/12/26 10:36:45;;;;;;;3.60;2.90;;;10.60;99.90;;;;;;5050907;28;20426;-79
2022/12/26 10:39:29;;;;;;;4.80;2.77;;;10.60;99.90;;;;;;5064790;28;20528;-78
2022/12/26 10:42:02;;;;;;;3.07;2.80;;;10.60;99.90;;;;;;5051666;28;20993;-77
2022/12/26 10:44:27;;;;;;;3.23;2.90;;;10.60;99.90;;;;;;5051729;28;20525;-76
2022/12/26 10:47:07;;;;;;;3.90;2.57;;;10.80;99.90;;;;;;5052195;28;20459;-78
2022/12/26 10:49:34;;;;;;;7.27;3.33;;;10.60;99.90;;;;;;5051909;28;20176;-77
2022/12/26 10:52:01;;;;;;;8.43;4.77;;;10.60;99.90;;;;;;5052011;28;20951;-78
2022/12/26 10:54:28;;;;;;;4.87;2.93;;;10.60;99.90;;;;;;5051801;28;20454;-78
2022/12/26 10:56:56;;;;;;;7.90;4.10;;;10.60;99.90;;;;;;5053248;28;20509;-78
2022/12/26 10:59:37;;;;;;;7.57;4.47;;;10.50;99.90;;;;;;5055230;28;20434;-78
2022/12/26 11:02:26;;;;;;;7.77;5.17;;;10.40;99.90;;;;;;5070016;28;20468;-76
2022/12/26 11:05:13;;;;;;;6.23;3.60;;;10.30;99.90;;;;;;5051266;28;20538;-77
2022/12/26 11:07:50;;;;;;;3.53;2.97;;;10.10;99.90;;;;;;5034877;28;20513;-76
2022/12/26 11:10:21;;;;;;;4.67;2.40;;;10.10;99.90;;;;;;5075092;28;20421;-76
2022/12/26 11:13:01;;;;;;;3.07;2.60;;;10.10;99.90;;;;;;5073755;28;20421;-79
2022/12/26 11:15:45;;;;;;;5.03;2.50;;;10.10;99.90;;;;;;5073527;28;20457;-78
2022/12/26 11:18:30;;;;;;;2.40;2.20;;;10.10;99.90;;;;;;5073717;28;20406;-77
2022/12/26 11:21:29;;;;;;;3.13;2.83;;;10.10;99.90;;;;;;5073104;28;21251;-77
2022/12/26 11:24:06;;;;;;;169.57;136.93;;;10.10;99.90;;;;;;5055283;28;20437;-76
2022/12/26 11:26:32;;;;;;;27.97;25.47;;;10.20;99.90;;;;;;5075082;28;20502;-80
2022/12/26 11:29:10;;;;;;;4.20;3.80;;;10.20;99.90;;;;;;5076673;28;20883;-79
2022/12/26 11:31:39;;;;;;;4.50;2.97;;;10.30;99.90;;;;;;5076150;28;20183;-80
2022/12/26 11:34:12;;;;;;;3.50;3.10;;;10.30;99.90;;;;;;5041700;28;20969;-80
2022/12/26 11:36:45;;;;;;;3.73;3.00;;;10.30;99.90;;;;;;5058349;28;20406;-79
2022/12/26 11:39:37;;;;;;;2.97;2.70;;;10.10;99.90;;;;;;5057709;28;20793;-79
2022/12/26 11:42:11;;;;;;;5.17;2.80;;;10.20;99.90;;;;;;5074880;28;20556;-80
2022/12/26 11:44:41;;;;;;;5.70;3.60;;;10.40;99.90;;;;;;5057545;28;20441;-80
2022/12/26 11:47:08;;;;;;;5.33;3.57;;;10.30;99.90;;;;;;5057123;28;20425;-79
2022/12/26 11:50:02;;;;;;;3.87;2.80;;;10.30;99.90;;;;;;5040495;28;20520;-79
2022/12/26 11:52:37;;;;;;;2.83;2.63;;;10.30;99.90;;;;;;5056132;28;20486;-79
2022/12/26 11:55:35;;;;;;;23.73;21.60;;;10.40;99.90;;;;;;5055931;28;20796;-79
2022/12/26 11:58:07;;;;;;;2.87;1.40;;;10.40;99.90;;;;;;5043023;28;20422;-79
2022/12/26 12:00:59;;;;;;;2.03;1.40;;;10.30;99.90;;;;;;5073217;28;20458;-79
2022/12/26 12:03:47;;;;;;;6.33;3.33;;;10.30;99.90;;;;;;5044373;28;20455;-80
2022/12/26 12:06:37;;;;;;;2.30;1.47;;;10.40;99.90;;;;;;5073318;28;20398;-78
2022/12/26 12:09:08;;;;;;;1.40;1.30;;;10.30;99.90;;;;;;5072790;28;20404;-79
2022/12/26 12:11:39;;;;;;;2.03;0.90;;;10.30;99.90;;;;;;5054736;28;21036;-78
2022/12/26 12:14:23;;;;;;;1.00;0.83;;;10.30;99.90;;;;;;5072057;28;20433;-78
2022/12/26 12:17:10;;;;;;;0.80;0.63;;;10.30;99.90;;;;;;5072928;28;20416;-79
2022/12/26 12:20:07;;;;;;;1.47;0.90;;;10.20;99.90;;;;;;5073164;28;20394;-77
2022/12/26 12:22:44;;;;;;;1.00;0.70;;;10.20;99.90;;;;;;5071394;28;20783;-78
2022/12/26 12:25:25;;;;;;;0.80;0.57;;;10.10;99.90;;;;;;5053830;28;20475;-77
2022/12/26 12:28:24;;;;;;;4.00;0.70;;;10.10;99.90;;;;;;5071918;28;20490;-77
2022/12/26 12:31:10;;;;;;;0.77;0.60;;;10.10;99.90;;;;;;5072110;28;20531;-77
2022/12/26 12:33:50;;;;;;;1.00;0.50;;;10.10;99.90;;;;;;5054234;28;20805;-77
2022/12/26 12:36:35;;;;;;;1.00;0.80;;;10.10;99.90;;;;;;5072500;28;20389;-77
2022/12/26 12:39:13;;;;;;;1.00;0.53;;;10.10;99.90;;;;;;5054109;28;20414;-78
2022/12/26 12:42:08;;;;;;;0.80;0.60;;;10.10;99.90;;;;;;5054050;28;21060;-78
2022/12/26 12:44:49;;;;;;;0.80;0.60;;;10.10;99.90;;;;;;4982773;28;20461;-77
2022/12/26 12:47:52;;;;;;;1.13;0.60;;;10.10;99.90;;;;;;5071959;28;20394;-78
2022/12/26 12:50:36;;;;;;;0.70;0.40;;;10.10;99.90;;;;;;5030520;28;20840;-76
2022/12/26 12:53:22;;;;;;;2.37;0.57;;;10.10;99.90;;;;;;5071669;28;20466;-76
2022/12/26 12:56:00;;;;;;;0.70;0.50;;;10.10;99.90;;;;;;5054336;28;21046;-77
2022/12/26 12:58:50;;;;;;;2.00;0.60;;;10.10;99.90;;;;;;5053436;28;20445;-78
2022/12/26 13:01:34;;;;;;;1.20;0.70;;;10.10;99.90;;;;;;5053484;28;20457;-79
2022/12/26 13:04:08;;;;;;;1.10;0.50;;;10.10;99.90;;;;;;5071782;28;20474;-77
2022/12/26 13:06:46;;;;;;;0.70;0.50;;;10.10;99.90;;;;;;5071336;28;20415;-78
2022/12/26 13:09:53;;;;;;;0.80;0.50;;;10.20;99.90;;;;;;5037556;28;20431;-77
2022/12/26 13:12:34;;;;;;;0.80;0.50;;;10.30;99.90;;;;;;4969964;28;21088;-78
2022/12/26 13:15:05;;;;;;;1.20;0.80;;;10.20;99.90;;;;;;4954016;28;20899;-76
2022/12/26 13:17:42;;;;;;;0.80;0.63;;;10.20;99.90;;;;;;5015993;28;20425;-77
2022/12/26 13:20:08;;;;;;;0.80;0.53;;;10.20;99.90;;;;;;5052722;28;20480;-78
2022/12/26 13:25:33;;;;;;;1.10;0.63;;;10.20;99.90;;;;;;5071159;28;20170;-79
2022/12/26 13:28:08;;;;;;;3.83;0.50;;;10.30;99.90;;;;;;5070837;28;20440;-79
2022/12/26 13:30:37;;;;;;;0.70;0.53;;;10.30;99.90;;;;;;5052887;28;20545;-76
2022/12/26 13:33:04;;;;;;;1.17;0.60;;;10.30;99.90;;;;;;5052537;28;20471;-79
2022/12/26 13:35:52;;;;;;;1.23;0.50;;;10.30;99.90;;;;;;5070666;28;20550;-80
2022/12/26 13:38:20;;;;;;;0.70;0.50;;;10.40;99.90;;;;;;5070312;28;20840;-77
2022/12/26 13:40:49;;;;;;;0.77;0.50;;;10.50;99.90;;;;;;5035868;28;20466;-77
2022/12/26 13:46:37;;;;;;;1.43;0.77;;;10.50;99.90;;;;;;5070651;28;20449;-77
2022/12/26 13:49:03;;;;;;;0.97;0.43;;;10.50;99.90;;;;;;5070396;28;20403;-76
2022/12/26 13:51:47;;;;;;;0.70;0.43;;;10.50;99.90;;;;;;5052417;28;20428;-78
2022/12/26 13:54:15;;;;;;;0.70;0.40;;;10.50;99.90;;;;;;5069924;28;20448;-77
2022/12/26 13:56:40;;;;;;;0.70;0.50;;;10.50;99.90;;;;;;5069812;28;20494;-78
2022/12/26 13:59:06;;;;;;;0.93;0.53;;;10.50;99.90;;;;;;5070139;28;20433;-77
2022/12/26 14:01:50;;;;;;;2.10;0.50;;;10.50;99.90;;;;;;5051729;28;20649;-77
2022/12/26 14:04:37;;;;;;;0.70;0.50;;;10.50;99.90;;;;;;5069830;28;20697;-76
2022/12/26 14:07:20;;;;;;;2.20;0.50;;;10.60;99.90;;;;;;5070348;28;20394;-77
2022/12/26 14:10:04;;;;;;;1.00;0.50;;;10.60;99.90;;;;;;5069777;28;20410;-78
2022/12/26 14:13:01;;;;;;;0.70;0.40;;;10.60;99.90;;;;;;5051745;28;20417;-76
2022/12/26 14:15:50;;;;;;;0.80;0.40;;;10.50;99.90;;;;;;5051351;28;20504;-77
2022/12/26 14:18:34;;;;;;;1.00;0.40;;;10.50;99.90;;;;;;5069410;28;20393;-77
2022/12/26 14:21:15;;;;;;;0.80;0.50;;;10.60;99.90;;;;;;5069473;28;20461;-78
2022/12/26 14:23:47;;;;;;;0.70;0.40;;;10.60;99.90;;;;;;5051170;28;20449;-78
2022/12/26 14:26:25;;;;;;;0.80;0.40;;;10.60;99.90;;;;;;5069211;28;20521;-76
2022/12/26 14:29:06;;;;;;;0.60;0.40;;;10.60;99.90;;;;;;5069857;28;20912;-77
2022/12/26 14:31:53;;;;;;;1.20;0.50;;;10.60;99.90;;;;;;5069517;28;20452;-76
2022/12/26 14:34:30;;;;;;;0.70;0.40;;;10.60;99.90;;;;;;5051293;28;20447;-77
2022/12/26 14:37:09;;;;;;;0.93;0.50;;;10.70;99.90;;;;;;5069194;28;20408;-77
2022/12/26 14:40:02;;;;;;;0.70;0.40;;;10.60;99.90;;;;;;5051449;28;20422;-77
2022/12/26 14:45:20;;;;;;;0.70;0.47;;;10.70;99.90;;;;;;5068888;28;20477;-77
2022/12/26 14:47:47;;;;;;;0.70;0.40;;;10.70;99.90;;;;;;5069617;28;20416;-79
2022/12/26 14:50:31;;;;;;;0.70;0.50;;;10.70;99.90;;;;;;5069245;28;20510;-78
2022/12/26 14:53:23;;;;;;;0.70;0.40;;;10.70;99.90;;;;;;5070020;28;20431;-77
2022/12/26 14:55:53;;;;;;;1.20;0.50;;;10.70;99.90;;;;;;5047128;28;20421;-77
2022/12/26 14:58:37;;;;;;;0.80;0.50;;;10.70;99.90;;;;;;5069419;28;20468;-77
2022/12/26 15:01:11;;;;;;;0.70;0.40;;;10.70;99.90;;;;;;5069473;28;20446;-78
2022/12/26 15:03:59;;;;;;;0.90;0.40;;;10.70;99.90;;;;;;5069474;28;20441;-79
2022/12/26 15:06:54;;;;;;;0.70;0.40;;;10.70;99.90;;;;;;5051572;28;20420;-77
2022/12/26 15:10:00;;;;;;;0.70;0.40;;;10.70;99.90;;;;;;5027597;28;20430;-77
2022/12/26 15:12:47;;;;;;;0.70;0.50;;;10.70;99.90;;;;;;5069345;28;20402;-78
2022/12/26 15:15:16;;;;;;;0.70;0.40;;;10.60;99.90;;;;;;5051328;28;21033;-78
2022/12/26 15:18:06;;;;;;;1.90;1.40;;;10.60;99.90;;;;;;5069531;28;20411;-78
2022/12/26 15:20:59;;;;;;;1.00;0.40;;;10.60;99.90;;;;;;5050209;28;20458;-77
2022/12/26 15:23:46;;;;;;;0.70;0.50;;;10.70;99.90;;;;;;5051193;28;20528;-78
2022/12/26 15:26:18;;;;;;;0.70;0.50;;;10.70;99.90;;;;;;5051050;28;20456;-77
2022/12/26 15:28:58;;;;;;;0.70;0.40;;;10.70;99.90;;;;;;5051055;28;20427;-77